createdAt,value
2023-10-27T00:00:07.331Z,5.63
2023-10-27T00:02:39.628Z,4.43
2023-10-27T00:05:08.154Z,5.60
2023-10-27T00:07:35.285Z,8.52
2023-10-27T00:10:02.629Z,12.68
2023-10-27T00:12:31.327Z,6.22
2023-10-27T00:14:58.603Z,4.53
2023-10-27T00:17:25.825Z,9.00
2023-10-27T00:19:53.556Z,5.00
2023-10-27T00:22:21.352Z,5.45
2023-10-27T00:24:48.624Z,8.38
2023-10-27T00:27:16.108Z,7.40
2023-10-27T00:29:43.408Z,6.70
2023-10-27T00:32:10.771Z,7.72
2023-10-27T00:34:38.378Z,7.65
2023-10-27T00:37:05.721Z,5.13
2023-10-27T00:39:32.852Z,6.65
2023-10-27T00:42:01.322Z,4.78
2023-10-27T00:44:28.582Z,3.45
2023-10-27T00:46:57.142Z,5.97
2023-10-27T00:49:25.349Z,5.18
2023-10-27T00:51:55.110Z,3.90
2023-10-27T00:54:23.848Z,3.22
2023-10-27T00:56:53.910Z,3.08
2023-10-27T00:59:21.558Z,3.83
2023-10-27T01:01:49.027Z,4.45
2023-10-27T01:04:16.556Z,3.45
2023-10-27T01:06:44.021Z,5.25
2023-10-27T01:09:11.303Z,4.10
2023-10-27T01:11:39.516Z,3.47
2023-10-27T01:14:06.934Z,3.40
2023-10-27T01:16:34.076Z,2.85
2023-10-27T01:19:01.378Z,5.43
2023-10-27T01:21:28.601Z,2.53
2023-10-27T01:23:56.132Z,3.53
2023-10-27T01:26:23.371Z,5.18
2023-10-27T01:28:50.563Z,5.47
2023-10-27T01:31:18.267Z,2.72
2023-10-27T01:33:45.412Z,4.10
2023-10-27T01:36:12.614Z,4.03
2023-10-27T01:38:40.762Z,4.45
2023-10-27T01:41:10.475Z,5.38
2023-10-27T01:43:38.351Z,5.32
2023-10-27T01:46:05.578Z,2.95
2023-10-27T01:48:33.159Z,3.30
2023-10-27T01:51:00.322Z,3.40
2023-10-27T01:53:28.471Z,2.33
2023-10-27T01:55:55.547Z,3.88
2023-10-27T01:58:22.757Z,3.08
2023-10-27T02:00:50.679Z,3.72
2023-10-27T02:03:18.362Z,5.30
2023-10-27T02:05:47.862Z,6.00
2023-10-27T02:08:15.744Z,2.60
2023-10-27T02:10:45.510Z,1.98
2023-10-27T02:13:12.862Z,4.43
2023-10-27T02:15:40.005Z,3.53
2023-10-27T02:18:07.169Z,4.47
2023-10-27T02:20:34.487Z,3.05
2023-10-27T02:23:01.818Z,3.92
2023-10-27T02:25:30.534Z,4.82
2023-10-27T02:27:57.812Z,2.90
2023-10-27T02:30:25.234Z,3.63
2023-10-27T02:32:52.614Z,3.95
2023-10-27T02:35:19.789Z,2.75
2023-10-27T02:37:47.227Z,3.17
2023-10-27T02:40:14.452Z,2.83
2023-10-27T02:42:41.729Z,3.60
2023-10-27T02:45:09.794Z,1.95
2023-10-27T02:47:37.067Z,2.55
2023-10-27T02:50:04.446Z,3.50
2023-10-27T02:52:31.535Z,3.30
2023-10-27T02:54:58.832Z,2.40
2023-10-27T02:57:26.079Z,3.22
2023-10-27T02:59:53.434Z,2.22
2023-10-27T03:02:21.093Z,2.63
2023-10-27T03:04:49.404Z,2.25
2023-10-27T03:07:17.641Z,2.20
2023-10-27T03:09:45.352Z,2.90
2023-10-27T03:12:13.211Z,2.33
2023-10-27T03:14:40.357Z,3.53
2023-10-27T03:17:07.809Z,3.90
2023-10-27T03:19:35.141Z,2.17
2023-10-27T03:22:05.858Z,1.77
2023-10-27T03:24:33.321Z,4.32
2023-10-27T03:27:00.669Z,2.72
2023-10-27T03:29:28.438Z,3.92
2023-10-27T03:31:55.614Z,3.33
2023-10-27T03:34:23.054Z,1.90
2023-10-27T03:36:52.551Z,4.05
2023-10-27T03:39:19.772Z,3.35
2023-10-27T03:41:47.014Z,2.95
2023-10-27T03:44:14.267Z,1.67
2023-10-27T03:46:41.588Z,2.17
2023-10-27T03:49:09.039Z,3.83
2023-10-27T03:51:36.292Z,1.95
2023-10-27T03:54:03.488Z,2.25
2023-10-27T03:56:33.086Z,3.72
2023-10-27T03:59:00.555Z,2.08
2023-10-27T04:01:29.144Z,2.35
2023-10-27T04:03:57.099Z,2.55
2023-10-27T04:06:24.859Z,3.72
2023-10-27T04:08:52.505Z,2.30
2023-10-27T04:11:20.182Z,2.85
2023-10-27T04:13:47.406Z,2.10
2023-10-27T04:16:14.627Z,2.78
2023-10-27T04:18:41.844Z,3.42
2023-10-27T04:21:09.067Z,10.82
2023-10-27T04:23:36.662Z,5.07
2023-10-27T04:26:03.971Z,4.40
2023-10-27T04:28:31.690Z,2.30
2023-10-27T04:30:59.051Z,2.40
2023-10-27T04:33:28.175Z,2.60
2023-10-27T04:35:55.769Z,1.63
2023-10-27T04:38:22.938Z,2.58
2023-10-27T04:40:53.017Z,1.58
2023-10-27T04:43:22.819Z,2.72
2023-10-27T04:45:50.127Z,1.83
2023-10-27T04:48:17.345Z,4.95
2023-10-27T04:50:44.751Z,3.08
2023-10-27T04:53:13.339Z,2.85
2023-10-27T04:55:40.781Z,3.47
2023-10-27T04:58:10.576Z,1.58
2023-10-27T05:00:39.678Z,4.30
2023-10-27T05:03:08.223Z,3.28
2023-10-27T05:05:36.245Z,4.63
2023-10-27T05:08:03.877Z,4.63
2023-10-27T05:10:32.650Z,3.03
2023-10-27T05:13:00.624Z,4.13
2023-10-27T05:15:28.145Z,3.63
2023-10-27T05:17:55.683Z,4.13
2023-10-27T05:20:23.197Z,2.25
2023-10-27T05:22:50.622Z,3.20
2023-10-27T05:25:20.933Z,3.60
2023-10-27T05:27:48.208Z,3.03
2023-10-27T05:30:15.701Z,4.13
2023-10-27T05:32:42.960Z,2.83
2023-10-27T05:35:10.277Z,8.55
2023-10-27T05:37:37.820Z,4.90
2023-10-27T05:40:05.416Z,6.50
2023-10-27T05:42:34.980Z,7.15
2023-10-27T05:45:02.400Z,5.88
2023-10-27T05:47:29.641Z,6.68
2023-10-27T05:49:58.582Z,5.45
2023-10-27T05:52:25.852Z,6.13
2023-10-27T05:54:53.185Z,6.20
2023-10-27T05:57:21.439Z,8.57
2023-10-27T05:59:48.692Z,20.25
2023-10-27T06:02:16.335Z,14.57
2023-10-27T06:04:44.296Z,4.75
2023-10-27T06:07:17.063Z,8.23
2023-10-27T06:09:45.323Z,7.30
2023-10-27T06:12:13.535Z,12.55
2023-10-27T06:14:46.044Z,22.23
2023-10-27T06:17:15.053Z,7.90
2023-10-27T06:19:42.987Z,10.70
2023-10-27T06:22:10.878Z,13.55
2023-10-27T06:24:38.528Z,6.18
2023-10-27T06:27:07.003Z,6.00
2023-10-27T06:29:35.506Z,9.95
2023-10-27T06:32:05.206Z,3.50
2023-10-27T06:34:32.611Z,7.57
2023-10-27T06:37:01.716Z,2.08
2023-10-27T06:39:29.733Z,5.07
2023-10-27T06:41:57.506Z,7.82
2023-10-27T06:44:25.575Z,8.10
2023-10-27T06:46:52.814Z,5.15
2023-10-27T06:49:20.122Z,3.08
2023-10-27T06:51:49.374Z,3.20
2023-10-27T06:54:17.004Z,8.05
2023-10-27T06:56:44.772Z,7.05
2023-10-27T06:59:12.058Z,7.93
2023-10-27T07:01:57.812Z,4.28
2023-10-27T07:04:25.556Z,2.92
2023-10-27T07:06:53.744Z,8.70
2023-10-27T07:09:23.209Z,2.47
2023-10-27T07:11:50.801Z,3.72
2023-10-27T07:14:18.089Z,1.77
2023-10-27T07:16:46.578Z,5.07
2023-10-27T07:19:15.342Z,1.80
2023-10-27T07:21:43.126Z,1.02
2023-10-27T07:24:11.042Z,2.05
2023-10-27T07:26:41.115Z,1.63
2023-10-27T07:29:08.349Z,1.33
2023-10-27T07:31:35.516Z,0.95
2023-10-27T07:34:03.198Z,0.28
2023-10-27T07:36:30.503Z,2.30
2023-10-27T07:38:58.758Z,0.85
2023-10-27T07:41:26.357Z,2.55
2023-10-27T07:43:53.781Z,0.90
2023-10-27T07:46:20.977Z,1.25
2023-10-27T07:48:48.749Z,5.28
2023-10-27T07:51:16.872Z,3.95
2023-10-27T07:53:44.765Z,2.40
2023-10-27T07:56:13.122Z,1.60
2023-10-27T07:58:40.403Z,1.02
2023-10-27T08:01:07.977Z,1.02
2023-10-27T08:03:36.701Z,1.35
2023-10-27T08:06:11.456Z,0.55
2023-10-27T08:11:07.052Z,2.33
2023-10-27T08:13:35.026Z,2.28
2023-10-27T08:16:03.662Z,1.02
2023-10-27T08:18:30.988Z,1.20
2023-10-27T08:20:58.852Z,2.75
2023-10-27T08:23:26.798Z,1.23
2023-10-27T08:25:55.912Z,1.30
2023-10-27T08:28:29.419Z,0.80
2023-10-27T08:30:57.829Z,2.17
2023-10-27T08:33:28.311Z,3.60
2023-10-27T08:36:00.807Z,1.30
2023-10-27T08:38:30.823Z,1.48
2023-10-27T08:40:58.607Z,0.40
2023-10-27T08:43:27.118Z,0.95
2023-10-27T08:45:55.434Z,2.15
2023-10-27T08:48:25.028Z,0.77
2023-10-27T08:50:53.135Z,3.72
2023-10-27T08:53:20.853Z,1.85
2023-10-27T08:55:50.895Z,1.98
2023-10-27T08:58:19.009Z,4.13
2023-10-27T09:00:49.392Z,1.98
2023-10-27T09:03:20.140Z,2.55
2023-10-27T09:05:47.729Z,2.45
2023-10-27T09:08:15.033Z,2.78
2023-10-27T09:10:45.636Z,1.85
2023-10-27T09:13:13.746Z,2.80
2023-10-27T09:15:51.794Z,2.10
2023-10-27T09:18:34.228Z,4.25
2023-10-27T09:21:01.511Z,5.95
2023-10-27T09:23:46.151Z,2.50
2023-10-27T09:26:13.542Z,3.78
2023-10-27T09:28:41.417Z,2.95
2023-10-27T09:31:10.761Z,4.13
2023-10-27T09:33:38.346Z,3.05
2023-10-27T09:36:07.739Z,3.13
2023-10-27T09:38:34.998Z,8.63
2023-10-27T09:41:08.470Z,2.42
2023-10-27T09:43:40.071Z,5.60
2023-10-27T09:46:11.692Z,4.97
2023-10-27T09:48:43.933Z,4.13
2023-10-27T09:51:34.031Z,5.78
2023-10-27T09:54:02.153Z,7.65
2023-10-27T09:56:29.689Z,2.90
2023-10-27T09:58:57.009Z,5.03
2023-10-27T10:01:24.524Z,4.38
2023-10-27T10:03:51.883Z,3.40
2023-10-27T10:06:31.169Z,4.10
2023-10-27T10:09:11.966Z,2.70
2023-10-27T10:11:48.694Z,6.85
2023-10-27T10:14:38.240Z,6.75
2023-10-27T10:17:05.832Z,4.20
2023-10-27T10:19:53.058Z,5.15
2023-10-27T10:22:39.082Z,5.10
2023-10-27T10:25:16.486Z,4.85
2023-10-27T10:28:10.762Z,4.80
2023-10-27T10:30:42.866Z,6.53
2023-10-27T10:33:20.911Z,5.90
2023-10-27T10:35:49.234Z,6.60
2023-10-27T10:38:28.192Z,3.95
2023-10-27T10:40:57.016Z,10.45
2023-10-27T10:43:31.918Z,5.53
2023-10-27T10:46:01.550Z,6.45
2023-10-27T10:48:30.154Z,5.53
2023-10-27T10:51:12.490Z,9.20
2023-10-27T10:53:39.816Z,10.07
2023-10-27T10:56:07.310Z,10.05
2023-10-27T10:58:38.533Z,2.97
2023-10-27T11:01:15.444Z,3.55
2023-10-27T11:03:48.198Z,4.03
2023-10-27T11:06:15.460Z,3.03
2023-10-27T11:08:43.027Z,5.60
2023-10-27T11:11:15.698Z,2.42
2023-10-27T11:13:44.854Z,3.47
2023-10-27T11:16:22.610Z,5.13
2023-10-27T11:18:52.343Z,5.03
2023-10-27T11:21:24.969Z,8.55
2023-10-27T11:23:52.714Z,3.90
2023-10-27T11:26:21.693Z,5.35
2023-10-27T11:28:49.273Z,4.47
2023-10-27T11:31:30.863Z,3.83
2023-10-27T11:34:09.359Z,4.38
2023-10-27T11:36:40.132Z,4.78
2023-10-27T11:39:22.033Z,4.40
2023-10-27T11:41:56.013Z,4.30
2023-10-27T11:44:23.568Z,4.57
2023-10-27T11:46:55.132Z,2.72
2023-10-27T11:49:22.991Z,4.55
2023-10-27T11:51:53.450Z,2.85
2023-10-27T11:54:21.442Z,3.33
2023-10-27T11:56:49.110Z,2.92
2023-10-27T11:59:18.602Z,4.28
2023-10-27T12:01:46.192Z,1.48
2023-10-27T12:04:13.930Z,2.17
2023-10-27T12:06:44.716Z,2.53
2023-10-27T12:09:13.990Z,2.13
2023-10-27T12:11:44.264Z,3.30
2023-10-27T12:14:14.012Z,1.52
2023-10-27T12:16:43.467Z,3.40
2023-10-27T12:19:14.912Z,2.63
2023-10-27T12:21:42.908Z,6.20
2023-10-27T12:24:10.953Z,3.10
2023-10-27T12:26:38.353Z,1.63
2023-10-27T12:29:06.059Z,2.00
2023-10-27T12:31:34.178Z,4.13
2023-10-27T12:34:02.075Z,3.15
2023-10-27T12:36:29.575Z,2.00
2023-10-27T12:38:56.725Z,2.40
2023-10-27T12:41:24.087Z,4.90
2023-10-27T12:43:51.759Z,2.88
2023-10-27T12:46:19.535Z,3.42
2023-10-27T12:48:48.491Z,3.53
2023-10-27T12:51:17.197Z,5.65
2023-10-27T12:53:44.856Z,6.05
2023-10-27T12:56:12.410Z,2.00
2023-10-27T12:58:39.707Z,5.28
2023-10-27T13:01:08.063Z,1.58
2023-10-27T13:03:35.304Z,1.42
2023-10-27T13:06:02.449Z,2.17
2023-10-27T13:08:29.515Z,3.20
2023-10-27T13:10:57.916Z,3.20
2023-10-27T13:13:25.188Z,2.42
2023-10-27T13:15:52.372Z,1.70
2023-10-27T13:18:19.694Z,1.23
2023-10-27T13:20:46.922Z,0.60
2023-10-27T13:23:14.477Z,2.90
2023-10-27T13:25:41.607Z,0.98
2023-10-27T13:28:09.294Z,1.15
2023-10-27T13:30:38.341Z,3.15
2023-10-27T13:33:05.868Z,0.85
2023-10-27T13:35:33.644Z,4.00
2023-10-27T13:38:07.908Z,0.90
2023-10-27T13:43:03.935Z,0.52
2023-10-27T13:45:31.110Z,2.35
2023-10-27T13:47:58.722Z,2.38
2023-10-27T13:50:26.088Z,0.43
2023-10-27T13:52:57.184Z,2.42
2023-10-27T13:55:24.583Z,1.42
2023-10-27T13:57:51.744Z,1.13
2023-10-27T14:00:19.312Z,0.55
2023-10-27T14:02:46.894Z,1.13
2023-10-27T14:05:14.274Z,3.67
2023-10-27T14:07:41.917Z,2.83
2023-10-27T14:10:10.529Z,1.80
2023-10-27T14:12:39.005Z,4.70
2023-10-27T14:15:08.513Z,2.92
2023-10-27T14:17:36.279Z,2.88
2023-10-27T14:20:06.792Z,1.83
2023-10-27T14:22:34.293Z,1.25
2023-10-27T14:25:02.028Z,3.55
2023-10-27T14:27:29.435Z,4.60
2023-10-27T14:29:56.834Z,2.00
2023-10-27T14:32:24.115Z,1.73
2023-10-27T14:34:51.564Z,3.13
2023-10-27T14:37:19.535Z,2.25
2023-10-27T14:39:47.608Z,1.60
2023-10-27T14:42:16.212Z,1.15
2023-10-27T14:44:43.824Z,5.35
2023-10-27T14:47:12.292Z,1.33
2023-10-27T14:49:41.014Z,1.75
2023-10-27T14:52:15.085Z,2.33
2023-10-27T14:54:44.940Z,2.83
2023-10-27T14:57:12.390Z,2.90
2023-10-27T14:59:40.207Z,3.78
2023-10-27T15:02:07.458Z,3.75
2023-10-27T15:04:35.015Z,2.38
2023-10-27T15:07:04.187Z,2.63
2023-10-27T15:09:35.947Z,2.17
2023-10-27T15:12:06.749Z,1.38
2023-10-27T15:14:33.981Z,2.80
2023-10-27T15:17:01.653Z,3.22
2023-10-27T15:19:28.972Z,2.83
2023-10-27T15:21:56.069Z,1.88
2023-10-27T15:24:24.556Z,3.95
2023-10-27T15:26:52.278Z,3.10
2023-10-27T15:29:19.594Z,1.70
2023-10-27T15:31:47.033Z,1.65
2023-10-27T15:34:16.879Z,4.13
2023-10-27T15:36:44.389Z,2.55
2023-10-27T15:39:12.330Z,1.60
2023-10-27T15:41:39.979Z,2.63
2023-10-27T15:44:08.197Z,2.85
2023-10-27T15:46:36.512Z,2.47
2023-10-27T15:49:04.015Z,2.22
2023-10-27T15:51:31.269Z,2.88
2023-10-27T15:54:00.902Z,2.55
2023-10-27T15:56:28.652Z,3.75
2023-10-27T15:58:57.116Z,2.72
2023-10-27T16:01:25.107Z,3.72
2023-10-27T16:03:52.622Z,2.40
2023-10-27T16:06:21.014Z,2.72
2023-10-27T16:08:48.214Z,3.70
2023-10-27T16:11:15.912Z,3.85
2023-10-27T16:13:46.007Z,4.07
2023-10-27T16:16:14.631Z,2.95
2023-10-27T16:18:42.387Z,4.50
2023-10-27T16:21:09.678Z,4.93
2023-10-27T16:23:36.923Z,1.77
2023-10-27T16:26:06.901Z,5.00
2023-10-27T16:28:34.112Z,3.45
2023-10-27T16:31:04.509Z,2.90
2023-10-27T16:33:32.882Z,4.72
2023-10-27T16:36:05.227Z,3.30
2023-10-27T16:38:32.454Z,2.45
2023-10-27T16:41:03.207Z,3.63
2023-10-27T16:43:34.459Z,3.22
2023-10-27T16:46:05.462Z,2.40
2023-10-27T16:48:32.782Z,2.72
2023-10-27T16:51:17.129Z,3.97
2023-10-27T16:53:45.617Z,3.35
2023-10-27T16:56:14.148Z,3.17
2023-10-27T16:58:41.572Z,3.78
2023-10-27T17:01:08.893Z,3.17
2023-10-27T17:03:36.549Z,3.55
2023-10-27T17:06:04.604Z,4.88
2023-10-27T17:08:31.765Z,4.00
2023-10-27T17:11:00.651Z,4.80
2023-10-27T17:13:28.188Z,5.25
2023-10-27T17:16:21.579Z,5.28
2023-10-27T17:18:48.935Z,3.55
2023-10-27T17:21:23.484Z,2.75
2023-10-27T17:26:20.335Z,1.63
2023-10-27T17:28:47.819Z,3.33
2023-10-27T17:31:18.344Z,3.72
2023-10-27T17:33:47.340Z,3.88
2023-10-27T17:36:15.862Z,4.47
2023-10-27T17:38:43.485Z,4.28
2023-10-27T17:41:13.812Z,5.40
2023-10-27T17:43:40.971Z,5.53
2023-10-27T17:46:10.743Z,3.90
2023-10-27T17:48:38.738Z,5.75
2023-10-27T17:51:09.499Z,3.55
2023-10-27T17:53:39.708Z,3.78
2023-10-27T17:56:08.442Z,3.97
2023-10-27T17:58:36.444Z,4.07
2023-10-27T18:01:10.713Z,5.05
2023-10-27T18:03:40.667Z,4.28
2023-10-27T18:06:16.545Z,5.80
2023-10-27T18:08:45.812Z,7.35
2023-10-27T18:11:16.654Z,4.45
2023-10-27T18:13:43.876Z,5.80
2023-10-27T18:16:11.467Z,5.97
2023-10-27T18:18:39.228Z,4.55
2023-10-27T18:21:08.165Z,4.00
2023-10-27T18:23:35.892Z,4.90
2023-10-27T18:26:21.122Z,5.82
2023-10-27T18:28:48.947Z,5.78
2023-10-27T18:31:17.669Z,5.93
2023-10-27T18:33:47.766Z,5.68
2023-10-27T18:36:16.759Z,6.75
2023-10-27T18:38:46.889Z,3.15
2023-10-27T18:41:15.495Z,5.43
2023-10-27T18:43:44.287Z,4.70
2023-10-27T18:46:13.370Z,5.68
2023-10-27T18:48:42.260Z,4.53
2023-10-27T18:51:12.909Z,5.93
2023-10-27T18:53:40.308Z,6.65
2023-10-27T18:56:08.530Z,4.93
2023-10-27T18:58:37.207Z,3.50
2023-10-27T19:01:11.238Z,3.35
2023-10-27T19:03:44.148Z,6.22
2023-10-27T19:06:12.337Z,6.72
2023-10-27T19:08:40.708Z,4.22
2023-10-27T19:11:11.940Z,6.47
2023-10-27T19:13:41.013Z,7.40
2023-10-27T19:16:09.991Z,5.35
2023-10-27T19:18:38.927Z,5.55
2023-10-27T19:21:10.519Z,6.88
2023-10-27T19:23:38.579Z,3.92
2023-10-27T19:26:15.814Z,7.00
2023-10-27T19:28:44.523Z,3.10
2023-10-27T19:31:16.620Z,5.28
2023-10-27T19:33:45.242Z,5.53
2023-10-27T19:36:14.833Z,6.45
2023-10-27T19:38:42.991Z,7.28
2023-10-27T19:41:14.019Z,4.68
2023-10-27T19:43:41.977Z,8.63
2023-10-27T19:46:09.865Z,7.60
2023-10-27T19:48:38.967Z,6.78
2023-10-27T19:51:06.612Z,5.78
2023-10-27T19:53:35.490Z,7.07
2023-10-27T19:56:02.809Z,7.68
2023-10-27T19:58:30.239Z,7.00
2023-10-27T20:00:57.464Z,5.18
2023-10-27T20:03:24.983Z,6.38
2023-10-27T20:05:53.560Z,5.15
2023-10-27T20:08:21.015Z,5.70
2023-10-27T20:10:48.938Z,4.65
2023-10-27T20:13:16.723Z,6.50
2023-10-27T20:15:46.389Z,8.07
2023-10-27T20:18:14.282Z,6.38
2023-10-27T20:20:47.900Z,8.63
2023-10-27T20:23:15.510Z,6.63
2023-10-27T20:25:44.231Z,5.30
2023-10-27T20:28:11.973Z,5.85
2023-10-27T20:30:39.661Z,5.30
2023-10-27T20:33:07.285Z,6.20
2023-10-27T20:35:34.582Z,6.68
2023-10-27T20:38:01.699Z,5.70
2023-10-27T20:40:29.423Z,6.53
2023-10-27T20:42:57.905Z,6.57
2023-10-27T20:45:26.080Z,6.75
2023-10-27T20:47:53.300Z,5.43
2023-10-27T20:50:20.601Z,5.80
2023-10-27T20:52:47.767Z,7.80
2023-10-27T20:55:18.447Z,5.93
2023-10-27T20:57:47.805Z,6.68
2023-10-27T21:00:16.769Z,6.93
2023-10-27T21:02:45.106Z,5.45
2023-10-27T21:05:13.035Z,6.40
2023-10-27T21:07:40.300Z,4.82
2023-10-27T21:10:08.253Z,7.07
2023-10-27T21:12:35.593Z,6.30
2023-10-27T21:15:07.577Z,12.32
2023-10-27T21:17:35.927Z,8.18
2023-10-27T21:20:06.438Z,6.90
2023-10-27T21:22:34.450Z,5.90
2023-10-27T21:25:01.929Z,7.28
2023-10-27T21:27:29.487Z,7.25
2023-10-27T21:29:57.047Z,6.25
2023-10-27T21:32:25.160Z,6.88
2023-10-27T21:34:52.670Z,6.15
2023-10-27T21:37:19.858Z,7.97
2023-10-27T21:39:52.768Z,6.80
2023-10-27T21:42:20.348Z,7.25
2023-10-27T21:44:48.330Z,3.05
2023-10-27T21:47:15.841Z,4.10
2023-10-27T21:49:46.929Z,5.00
2023-10-27T21:52:14.852Z,5.35
2023-10-27T21:54:42.557Z,6.82
2023-10-27T21:57:11.312Z,3.00
2023-10-27T21:59:41.804Z,5.88
2023-10-27T22:02:12.433Z,2.80
2023-10-27T22:04:39.870Z,2.53
2023-10-27T22:07:08.179Z,4.88
2023-10-27T22:09:36.713Z,4.68
2023-10-27T22:12:05.661Z,1.60
2023-10-27T22:14:34.776Z,3.80
2023-10-27T22:17:04.019Z,3.20
2023-10-27T22:19:31.385Z,2.72
2023-10-27T22:21:58.950Z,3.08
2023-10-27T22:24:27.513Z,3.20
2023-10-27T22:26:56.881Z,1.65
2023-10-27T22:29:24.503Z,3.65
2023-10-27T22:31:52.125Z,3.35
2023-10-27T22:34:19.314Z,5.22
2023-10-27T22:36:46.653Z,5.20
2023-10-27T22:39:13.835Z,4.53
2023-10-27T22:41:40.988Z,5.18
2023-10-27T22:44:08.881Z,2.42
2023-10-27T22:46:36.102Z,3.65
2023-10-27T22:49:03.742Z,5.97
2023-10-27T22:51:31.698Z,2.05
2023-10-27T22:53:58.782Z,4.32
2023-10-27T22:56:25.950Z,2.53
2023-10-27T22:58:53.449Z,2.25
2023-10-27T23:01:20.616Z,1.50
2023-10-27T23:03:48.036Z,1.60
2023-10-27T23:06:15.499Z,1.08
2023-10-27T23:08:45.381Z,1.75
2023-10-27T23:11:15.239Z,1.67
2023-10-27T23:13:46.261Z,0.75
2023-10-27T23:16:13.895Z,0.73
2023-10-27T23:18:44.599Z,0.98
2023-10-27T23:21:13.940Z,0.98
2023-10-27T23:23:43.928Z,0.50
2023-10-27T23:26:11.594Z,0.93
2023-10-27T23:28:40.760Z,0.68
2023-10-27T23:31:10.174Z,0.80
2023-10-27T23:33:41.050Z,1.00
2023-10-27T23:36:10.192Z,1.27
2023-10-27T23:38:42.066Z,2.33
2023-10-27T23:41:13.549Z,0.85
2023-10-27T23:43:42.562Z,4.60
2023-10-27T23:46:10.247Z,0.85
2023-10-27T23:48:38.158Z,1.70
2023-10-27T23:51:05.481Z,0.40
2023-10-27T23:53:32.572Z,1.38
2023-10-27T23:56:00.666Z,1.85
2023-10-27T23:58:28.411Z,0.60
